Time;durP1;ratioP1;P1;durP2;ratioP2;P2;SDS_P1;SDS_P2;PMS_P1;PMS_P2;Temp;Humidity;BMP_temperature;BMP_pressure;BME280_temperature;BME280_humidity;BME280_pressure;Samples;Min_cycle;Max_cycle;Signal;HPM_P1;HPM_P2
2022/12/01 00:01:27;;;;;;;14.90;9.60;;;5.20;99.90;;;;;;497239;239;27985;-68
2022/12/01 00:03:28;;;;;;;12.32;7.95;;;5.20;99.90;;;;;;497220;239;27967;-65
2022/12/01 00:05:29;;;;;;;11.60;8.18;;;5.20;99.90;;;;;;497198;239;27574;-67
2022/12/01 00:07:30;;;;;;;11.95;8.73;;;5.30;99.90;;;;;;497160;239;27455;-65
2022/12/01 00:11:51;;;;;;;13.70;8.90;;;5.20;99.90;;;;;;497220;238;28026;-68
2022/12/01 00:13:52;;;;;;;14.40;9.20;;;5.10;99.90;;;;;;497210;239;27990;-65
2022/12/01 00:15:54;;;;;;;15.93;10.50;;;5.10;99.90;;;;;;497192;239;27515;-66
2022/12/01 00:17:55;;;;;;;14.50;9.63;;;5.00;99.90;;;;;;497205;239;27507;-65
2022/12/01 00:19:56;;;;;;;15.05;9.80;;;5.00;99.90;;;;;;497228;239;27603;-65
2022/12/01 00:21:57;;;;;;;14.77;9.23;;;5.00;99.90;;;;;;497223;239;27501;-67
2022/12/01 00:23:59;;;;;;;17.23;9.80;;;5.10;99.90;;;;;;497228;239;27567;-66
2022/12/01 00:26:00;;;;;;;14.93;9.07;;;5.00;99.90;;;;;;497184;239;28003;-66
2022/12/01 00:28:01;;;;;;;14.27;8.88;;;5.00;99.90;;;;;;497208;239;27937;-66
2022/12/01 00:30:02;;;;;;;15.20;9.35;;;5.10;99.90;;;;;;497211;239;27554;-66
2022/12/01 00:32:04;;;;;;;13.38;8.60;;;5.00;99.90;;;;;;497222;239;27511;-68
2022/12/01 00:34:05;;;;;;;12.43;7.97;;;5.10;99.90;;;;;;497196;239;27453;-65
2022/12/01 00:36:06;;;;;;;13.23;7.62;;;5.10;99.90;;;;;;497155;239;27601;-65
2022/12/01 00:38:07;;;;;;;10.73;7.25;;;5.10;99.90;;;;;;497170;239;27608;-65
2022/12/01 00:40:09;;;;;;;12.18;8.23;;;5.10;99.90;;;;;;497175;239;27564;-65
2022/12/01 00:42:10;;;;;;;11.45;7.82;;;5.10;99.90;;;;;;497200;239;28064;-66
2022/12/01 00:44:11;;;;;;;12.73;9.07;;;5.10;99.90;;;;;;497205;239;27952;-66
2022/12/01 00:46:12;;;;;;;14.45;10.23;;;5.00;99.90;;;;;;497202;239;27590;-66
2022/12/01 00:48:14;;;;;;;13.68;8.75;;;5.00;99.90;;;;;;497185;239;27610;-65
2022/12/01 00:50:15;;;;;;;12.75;8.60;;;5.00;99.90;;;;;;497217;239;27524;-66
2022/12/01 00:52:16;;;;;;;11.27;7.90;;;5.10;99.90;;;;;;497189;239;27610;-67
2022/12/01 00:54:17;;;;;;;11.63;8.45;;;5.10;99.90;;;;;;497221;239;27570;-65
2022/12/01 00:56:19;;;;;;;16.42;10.82;;;5.00;99.90;;;;;;497190;239;27594;-65
2022/12/01 00:58:20;;;;;;;16.92;9.65;;;4.80;99.90;;;;;;497187;239;27948;-69
2022/12/01 01:00:21;;;;;;;15.07;10.10;;;4.90;99.90;;;;;;497154;239;27998;-66
2022/12/01 01:02:22;;;;;;;15.40;9.77;;;4.80;99.90;;;;;;497030;239;27485;-66
2022/12/01 01:04:24;;;;;;;15.88;9.60;;;4.90;99.90;;;;;;496989;239;27486;-65
2022/12/01 01:06:25;;;;;;;17.23;10.80;;;4.80;99.90;;;;;;496167;239;27583;-66
2022/12/01 01:08:26;;;;;;;15.35;9.35;;;4.80;99.90;;;;;;496318;239;27527;-67
2022/12/01 01:10:27;;;;;;;15.77;10.00;;;4.90;99.90;;;;;;497184;239;27453;-65
2022/12/01 01:12:29;;;;;;;15.88;9.30;;;5.00;99.90;;;;;;497239;239;28075;-67
2022/12/01 01:14:30;;;;;;;13.68;8.38;;;5.00;99.90;;;;;;497253;239;27960;-66
2022/12/01 01:16:31;;;;;;;14.40;9.10;;;5.00;99.90;;;;;;497179;239;29007;-65
2022/12/01 01:18:32;;;;;;;14.73;10.45;;;4.80;99.90;;;;;;497243;239;27480;-69
2022/12/01 01:20:34;;;;;;;15.38;9.68;;;4.80;99.90;;;;;;497245;239;27544;-65
2022/12/01 01:22:35;;;;;;;17.10;10.15;;;4.90;99.90;;;;;;497207;239;27558;-66
2022/12/01 01:24:36;;;;;;;15.68;9.43;;;4.70;99.90;;;;;;497172;239;27479;-65
2022/12/01 01:26:37;;;;;;;15.48;9.30;;;4.70;99.90;;;;;;497198;239;27572;-65
2022/12/01 01:28:40;;;;;;;16.30;10.05;;;4.70;99.90;;;;;;497224;239;27984;-68
2022/12/01 01:30:40;;;;;;;14.20;9.35;;;4.60;99.90;;;;;;497157;239;27975;-65
2022/12/01 01:32:41;;;;;;;15.25;8.93;;;4.70;99.90;;;;;;497188;239;28119;-66
2022/12/01 01:34:43;;;;;;;15.35;8.90;;;4.70;99.90;;;;;;497216;239;27537;-65
2022/12/01 01:36:44;;;;;;;14.45;9.40;;;4.70;99.90;;;;;;497156;239;27557;-66
2022/12/01 01:38:45;;;;;;;17.95;9.60;;;4.60;99.90;;;;;;497201;239;27465;-69
2022/12/01 01:40:46;;;;;;;15.98;10.40;;;4.60;99.90;;;;;;497196;239;27497;-65
2022/12/01 01:42:48;;;;;;;15.93;9.70;;;4.40;99.90;;;;;;497195;239;27599;-65
2022/12/01 01:44:49;;;;;;;15.02;9.82;;;4.50;99.90;;;;;;497176;239;27448;-65
2022/12/01 01:46:50;;;;;;;16.08;9.32;;;4.40;99.90;;;;;;497190;239;27917;-65
2022/12/01 01:48:51;;;;;;;16.83;10.15;;;4.40;99.90;;;;;;497205;239;28052;-68
2022/12/01 01:50:53;;;;;;;15.27;9.25;;;4.40;99.90;;;;;;497205;239;27445;-65
2022/12/01 01:52:54;;;;;;;17.55;9.30;;;4.40;99.90;;;;;;497134;239;27508;-66
2022/12/01 01:54:55;;;;;;;16.08;9.45;;;4.40;99.90;;;;;;497156;239;27535;-65
2022/12/01 01:56:56;;;;;;;14.30;9.00;;;4.40;99.90;;;;;;497183;239;27507;-66
2022/12/01 01:58:58;;;;;;;18.92;10.60;;;4.40;99.90;;;;;;497193;239;27484;-68
2022/12/01 02:00:59;;;;;;;16.25;9.77;;;4.30;99.90;;;;;;497197;239;27514;-65
2022/12/01 02:03:00;;;;;;;14.48;8.68;;;4.30;99.90;;;;;;497165;239;27976;-65
2022/12/01 02:05:01;;;;;;;13.88;8.02;;;4.30;99.90;;;;;;497185;239;28966;-65
2022/12/01 02:07:03;;;;;;;14.30;8.63;;;4.30;99.90;;;;;;497215;239;27457;-66
2022/12/01 02:09:04;;;;;;;11.10;7.05;;;4.40;99.90;;;;;;497203;239;27587;-66
2022/12/01 02:11:05;;;;;;;12.45;8.00;;;4.50;99.90;;;;;;497193;239;27453;-65
2022/12/01 02:13:06;;;;;;;14.55;8.05;;;4.50;99.90;;;;;;497185;239;27515;-66
2022/12/01 02:15:08;;;;;;;12.50;7.85;;;4.60;99.90;;;;;;497165;239;27574;-66
2022/12/01 02:17:09;;;;;;;11.50;7.22;;;4.60;99.90;;;;;;497207;239;27540;-65
2022/12/01 02:19:10;;;;;;;14.90;8.85;;;4.40;99.90;;;;;;497188;239;27624;-66
2022/12/01 02:21:11;;;;;;;15.98;8.73;;;4.30;99.90;;;;;;497173;239;27870;-65
2022/12/01 02:23:13;;;;;;;13.70;8.13;;;4.40;99.90;;;;;;497172;239;28041;-66
2022/12/01 02:25:14;;;;;;;18.75;8.88;;;4.40;99.90;;;;;;497176;239;27872;-65
2022/12/01 02:27:15;;;;;;;16.08;8.85;;;4.40;99.90;;;;;;497216;239;27552;-66
2022/12/01 02:29:16;;;;;;;16.67;9.93;;;4.30;99.90;;;;;;497227;239;27516;-67
2022/12/01 02:31:18;;;;;;;19.10;10.00;;;4.30;99.90;;;;;;497205;239;27549;-65
2022/12/01 02:33:19;;;;;;;16.20;10.52;;;4.20;99.90;;;;;;497175;239;27601;-65
2022/12/01 02:35:20;;;;;;;14.40;9.45;;;4.10;99.90;;;;;;497197;239;27449;-65
2022/12/01 02:37:21;;;;;;;19.52;10.73;;;4.10;99.90;;;;;;497210;239;27445;-66
2022/12/01 02:39:23;;;;;;;18.90;10.45;;;4.10;99.90;;;;;;497215;239;27961;-68
2022/12/01 02:41:24;;;;;;;24.25;11.77;;;4.10;99.90;;;;;;497196;239;27992;-64
2022/12/01 02:43:25;;;;;;;16.67;9.70;;;4.10;99.90;;;;;;497159;239;27556;-66
2022/12/01 02:45:26;;;;;;;19.52;10.50;;;4.20;99.90;;;;;;497166;239;27493;-65
2022/12/01 02:47:28;;;;;;;18.08;10.07;;;4.10;99.90;;;;;;497187;239;27408;-65
2022/12/01 02:49:29;;;;;;;20.48;11.23;;;4.10;99.90;;;;;;497184;239;27520;-67
2022/12/01 02:51:30;;;;;;;16.60;9.68;;;4.10;99.90;;;;;;497173;239;27534;-65
2022/12/01 02:53:31;;;;;;;15.32;9.70;;;4.10;99.90;;;;;;497170;239;27504;-66
2022/12/01 02:55:33;;;;;;;19.77;9.75;;;4.10;99.90;;;;;;497153;239;27882;-65
2022/12/01 02:57:34;;;;;;;16.83;9.70;;;4.00;99.90;;;;;;497208;239;28033;-65
2022/12/01 02:59:35;;;;;;;17.30;10.13;;;4.10;99.90;;;;;;497210;239;29028;-67
2022/12/01 03:01:41;;;;;;;16.25;9.57;;;4.10;99.90;;;;;;497188;239;27500;-65
2022/12/01 03:03:40;;;;;;;16.58;9.82;;;4.10;99.90;;;;;;497106;239;27500;-65
2022/12/01 03:05:42;;;;;;;16.85;10.45;;;4.10;99.90;;;;;;497189;239;27480;-65
2022/12/01 03:07:43;;;;;;;18.37;9.32;;;4.00;99.90;;;;;;497114;239;27984;-65
2022/12/01 03:09:44;;;;;;;16.15;9.07;;;4.00;99.90;;;;;;497185;239;27893;-65
2022/12/01 03:11:45;;;;;;;17.42;9.98;;;4.00;99.90;;;;;;497191;239;29050;-68
2022/12/01 03:13:47;;;;;;;17.45;10.15;;;3.90;99.90;;;;;;497192;239;27594;-66
2022/12/01 03:15:48;;;;;;;13.77;8.65;;;3.90;99.90;;;;;;497164;239;27477;-66
2022/12/01 03:17:49;;;;;;;15.15;8.48;;;3.90;99.90;;;;;;497156;239;27441;-66
2022/12/01 03:19:50;;;;;;;14.60;8.85;;;4.00;99.90;;;;;;497199;239;27457;-65
2022/12/01 03:21:52;;;;;;;14.85;8.80;;;4.00;99.90;;;;;;497153;239;27539;-67
2022/12/01 03:23:53;;;;;;;17.77;9.02;;;4.00;99.90;;;;;;497197;239;27476;-66
2022/12/01 03:25:54;;;;;;;13.85;8.15;;;4.00;99.90;;;;;;497174;239;27507;-66
2022/12/01 03:27:55;;;;;;;11.18;7.50;;;4.10;99.90;;;;;;497201;239;28757;-65
2022/12/01 03:29:57;;;;;;;12.73;7.75;;;4.20;99.90;;;;;;497255;239;27988;-66
2022/12/01 03:31:58;;;;;;;16.15;9.45;;;4.10;99.90;;;;;;497148;239;27932;-67
2022/12/01 03:33:59;;;;;;;15.52;8.75;;;4.00;99.90;;;;;;497248;239;27446;-65
2022/12/01 03:36:01;;;;;;;13.20;8.40;;;4.00;99.90;;;;;;497218;239;27585;-66
2022/12/01 03:38:02;;;;;;;13.05;7.93;;;4.00;99.90;;;;;;497223;239;27512;-66
2022/12/01 03:40:05;;;;;;;15.73;8.50;;;3.90;99.90;;;;;;497254;239;27430;-66
2022/12/01 03:42:04;;;;;;;15.63;8.57;;;3.80;99.90;;;;;;497149;239;27489;-67
2022/12/01 03:44:06;;;;;;;14.10;8.90;;;3.80;99.90;;;;;;497249;239;27436;-65
2022/12/01 03:46:07;;;;;;;13.73;9.18;;;3.70;99.90;;;;;;497201;239;27520;-66
2022/12/01 03:48:08;;;;;;;18.00;10.30;;;3.80;99.90;;;;;;497197;239;28773;-65
2022/12/01 03:50:12;;;;;;;18.12;10.05;;;3.80;99.90;;;;;;497207;239;28982;-65
2022/12/01 03:52:11;;;;;;;16.77;9.90;;;3.80;99.90;;;;;;497112;239;27460;-67
2022/12/01 03:54:12;;;;;;;17.33;9.80;;;3.80;99.90;;;;;;496984;239;27461;-65
2022/12/01 03:56:13;;;;;;;20.25;9.05;;;3.90;99.90;;;;;;497199;239;27597;-66
2022/12/01 03:58:14;;;;;;;16.92;9.98;;;3.80;99.90;;;;;;497216;239;27441;-65
2022/12/01 04:00:16;;;;;;;14.20;8.80;;;3.80;99.90;;;;;;497255;239;27451;-65
2022/12/01 04:02:17;;;;;;;16.80;9.15;;;3.90;99.90;;;;;;497260;239;27504;-67
2022/12/01 04:04:18;;;;;;;14.15;8.57;;;4.00;99.90;;;;;;497253;238;27458;-65
2022/12/01 04:06:19;;;;;;;14.68;9.23;;;4.00;99.90;;;;;;497227;239;27951;-67
2022/12/01 04:08:21;;;;;;;16.15;10.13;;;3.90;99.90;;;;;;497244;239;28702;-66
2022/12/01 04:10:22;;;;;;;14.87;8.48;;;3.90;99.90;;;;;;497275;239;28916;-66
2022/12/01 04:12:29;;;;;;;17.80;11.27;;;4.00;99.90;;;;;;497266;239;27463;-67
2022/12/01 04:14:30;;;;;;;19.90;11.52;;;3.80;99.90;;;;;;497235;239;27452;-65
2022/12/01 04:16:32;;;;;;;21.20;11.75;;;3.80;99.90;;;;;;497223;239;27559;-66
2022/12/01 04:18:33;;;;;;;18.90;11.23;;;3.80;99.90;;;;;;497254;239;27431;-68
2022/12/01 04:20:34;;;;;;;18.17;10.38;;;3.80;99.90;;;;;;497210;239;27432;-66
2022/12/01 04:22:35;;;;;;;18.85;10.55;;;3.80;99.90;;;;;;497206;239;27948;-66
2022/12/01 04:24:37;;;;;;;20.23;11.00;;;3.80;99.90;;;;;;497220;239;29430;-66
2022/12/01 04:26:38;;;;;;;15.20;9.73;;;3.90;99.90;;;;;;497195;239;27470;-65
2022/12/01 04:28:39;;;;;;;17.25;10.60;;;3.90;99.90;;;;;;497255;239;27613;-68
2022/12/01 04:30:40;;;;;;;18.45;9.95;;;3.80;99.90;;;;;;497216;239;27524;-66
2022/12/01 04:32:42;;;;;;;16.23;9.15;;;3.90;99.90;;;;;;497235;239;27484;-66
2022/12/01 04:34:43;;;;;;;17.08;10.35;;;3.90;99.90;;;;;;497194;239;27510;-65
2022/12/01 04:36:44;;;;;;;19.45;11.52;;;3.90;99.90;;;;;;497216;239;27489;-65
2022/12/01 04:38:45;;;;;;;20.15;11.77;;;3.80;99.90;;;;;;497149;239;27985;-67
2022/12/01 04:40:47;;;;;;;22.08;12.07;;;3.80;99.90;;;;;;497196;239;28065;-65
2022/12/01 04:42:48;;;;;;;22.45;12.05;;;3.80;99.90;;;;;;497207;239;27574;-66
2022/12/01 04:44:49;;;;;;;19.77;11.93;;;3.80;99.90;;;;;;497186;239;27527;-67
2022/12/01 04:46:51;;;;;;;18.83;11.30;;;3.70;99.90;;;;;;497227;239;27507;-66
2022/12/01 04:48:52;;;;;;;18.42;11.45;;;3.70;99.90;;;;;;497173;239;27488;-68
2022/12/01 04:50:53;;;;;;;22.25;12.75;;;3.80;99.90;;;;;;497205;239;27472;-65
2022/12/01 04:52:54;;;;;;;24.08;13.73;;;3.70;99.90;;;;;;497191;239;27481;-66
2022/12/01 04:54:56;;;;;;;23.35;14.60;;;3.60;99.90;;;;;;497179;239;28466;-65
2022/12/01 04:56:57;;;;;;;22.40;12.52;;;3.70;99.90;;;;;;497200;239;28062;-66
2022/12/01 04:58:58;;;;;;;24.83;13.10;;;3.70;99.90;;;;;;497214;239;27477;-67
2022/12/01 05:00:59;;;;;;;21.70;12.52;;;3.60;99.90;;;;;;497205;239;27445;-65
2022/12/01 05:03:01;;;;;;;25.20;13.57;;;3.60;99.90;;;;;;497193;239;27479;-66
2022/12/01 05:05:03;;;;;;;25.33;15.07;;;3.70;99.90;;;;;;497202;239;27499;-68
2022/12/01 05:07:03;;;;;;;24.63;13.57;;;3.60;99.90;;;;;;497131;239;27449;-65
2022/12/01 05:09:04;;;;;;;26.50;13.45;;;3.50;99.90;;;;;;497199;239;27611;-65
2022/12/01 05:11:06;;;;;;;26.50;13.85;;;3.60;99.90;;;;;;497188;239;28003;-66
2022/12/01 05:13:07;;;;;;;25.27;14.13;;;3.60;99.90;;;;;;497129;239;29063;-65
2022/12/01 05:15:08;;;;;;;25.35;13.77;;;3.60;99.90;;;;;;497226;239;27575;-69
2022/12/01 05:17:09;;;;;;;24.65;13.15;;;3.70;99.90;;;;;;497196;239;27441;-65
2022/12/01 05:21:30;;;;;;;25.65;13.60;;;3.60;99.90;;;;;;497202;238;27442;-68
2022/12/01 05:23:31;;;;;;;24.33;14.43;;;3.70;99.90;;;;;;497210;239;27543;-66
2022/12/01 05:25:33;;;;;;;28.98;14.63;;;3.60;99.90;;;;;;497196;239;27479;-66
2022/12/01 05:27:34;;;;;;;25.88;14.95;;;3.50;99.90;;;;;;497189;239;27555;-65
2022/12/01 05:29:35;;;;;;;27.73;15.30;;;3.50;99.90;;;;;;497167;239;27512;-65
2022/12/01 05:31:38;;;;;;;28.67;16.35;;;3.50;99.90;;;;;;497196;239;28093;-68
2022/12/01 05:33:38;;;;;;;25.55;14.75;;;3.50;99.90;;;;;;497107;239;27943;-65
2022/12/01 05:35:39;;;;;;;25.25;14.10;;;3.50;99.90;;;;;;497211;239;27476;-65
2022/12/01 05:37:40;;;;;;;23.95;13.18;;;3.60;99.90;;;;;;497211;239;27448;-65
2022/12/01 05:39:41;;;;;;;27.80;14.52;;;3.50;99.90;;;;;;497212;239;27552;-65
2022/12/01 05:41:43;;;;;;;27.50;14.75;;;3.50;99.90;;;;;;497227;239;27494;-67
2022/12/01 05:43:44;;;;;;;28.05;14.45;;;3.50;99.90;;;;;;497219;239;27539;-65
2022/12/01 05:45:45;;;;;;;27.45;16.33;;;3.50;99.90;;;;;;497197;239;27590;-66
2022/12/01 05:47:46;;;;;;;28.12;15.90;;;3.50;99.90;;;;;;497170;239;27975;-66
2022/12/01 05:49:48;;;;;;;28.35;15.25;;;3.50;99.90;;;;;;497180;239;28059;-66
2022/12/01 05:51:49;;;;;;;27.10;13.88;;;3.50;99.90;;;;;;497201;239;27477;-68
2022/12/01 05:53:50;;;;;;;27.02;14.98;;;3.50;99.90;;;;;;497206;239;27527;-65
2022/12/01 05:55:52;;;;;;;26.02;14.35;;;3.40;99.90;;;;;;497204;239;27512;-66
2022/12/01 05:57:53;;;;;;;24.87;14.87;;;3.30;99.90;;;;;;497185;239;27453;-65
2022/12/01 05:59:54;;;;;;;26.65;15.13;;;3.40;99.90;;;;;;497219;239;27538;-65
2022/12/01 06:01:55;;;;;;;24.98;14.65;;;3.40;99.90;;;;;;497231;239;27955;-69
2022/12/01 06:03:57;;;;;;;26.25;14.15;;;3.50;99.90;;;;;;497207;239;28997;-65
2022/12/01 06:05:58;;;;;;;24.90;14.65;;;3.40;99.90;;;;;;497191;239;27571;-66
2022/12/01 06:07:59;;;;;;;26.92;15.20;;;3.40;99.90;;;;;;497178;239;27441;-65
2022/12/01 06:10:00;;;;;;;26.73;15.77;;;3.40;99.90;;;;;;497202;239;27471;-66
2022/12/01 06:12:02;;;;;;;25.70;13.98;;;3.50;99.90;;;;;;497211;239;27392;-69
2022/12/01 06:14:03;;;;;;;26.85;14.77;;;3.50;99.90;;;;;;497203;239;27562;-65
2022/12/01 06:16:04;;;;;;;26.77;14.70;;;3.50;99.90;;;;;;497149;239;27476;-66
2022/12/01 06:18:05;;;;;;;24.52;13.55;;;3.60;99.90;;;;;;497170;239;28685;-65
2022/12/01 06:20:07;;;;;;;25.45;14.15;;;3.50;99.90;;;;;;497214;239;27888;-65
2022/12/01 06:22:08;;;;;;;27.20;13.75;;;3.50;99.90;;;;;;496851;239;27508;-67
2022/12/01 06:24:09;;;;;;;31.95;16.42;;;3.50;99.90;;;;;;497176;239;27456;-65
2022/12/01 06:26:10;;;;;;;27.58;16.20;;;3.50;99.90;;;;;;497165;239;27484;-65
2022/12/01 06:28:12;;;;;;;24.17;14.55;;;3.60;99.90;;;;;;497169;239;27548;-66
2022/12/01 06:30:13;;;;;;;24.67;14.85;;;3.60;99.90;;;;;;497211;239;27544;-65
2022/12/01 06:32:14;;;;;;;23.75;13.23;;;3.60;99.90;;;;;;497211;239;27599;-67
2022/12/01 06:34:15;;;;;;;22.73;13.95;;;3.70;99.90;;;;;;497207;239;28012;-65
2022/12/01 06:36:17;;;;;;;21.05;12.15;;;3.80;99.90;;;;;;497184;239;28041;-66
2022/12/01 06:38:18;;;;;;;20.33;11.55;;;3.80;99.90;;;;;;497144;239;27484;-65
2022/12/01 06:40:19;;;;;;;22.45;11.55;;;3.80;99.90;;;;;;497206;239;27453;-66
2022/12/01 06:42:20;;;;;;;17.90;11.15;;;3.80;99.90;;;;;;497173;239;27389;-67
2022/12/01 06:44:22;;;;;;;21.87;12.20;;;3.70;99.90;;;;;;497185;239;27530;-65
2022/12/01 06:46:23;;;;;;;20.40;12.25;;;3.60;99.90;;;;;;497157;239;27472;-66
2022/12/01 06:48:24;;;;;;;24.42;12.40;;;3.50;99.90;;;;;;497167;239;28771;-65
2022/12/01 06:50:25;;;;;;;20.10;11.45;;;3.60;99.90;;;;;;497201;239;27991;-65
2022/12/01 06:52:27;;;;;;;22.35;12.50;;;3.60;99.90;;;;;;497196;239;27477;-67
2022/12/01 06:54:28;;;;;;;24.35;13.85;;;3.60;99.90;;;;;;497174;239;27516;-65
2022/12/01 06:56:29;;;;;;;28.33;13.80;;;3.40;99.90;;;;;;497182;239;27598;-66
2022/12/01 06:58:30;;;;;;;24.95;13.40;;;3.40;99.90;;;;;;497198;239;27482;-65
2022/12/01 07:00:32;;;;;;;28.40;14.25;;;3.50;99.90;;;;;;497198;239;27465;-65
2022/12/01 07:02:33;;;;;;;25.17;14.32;;;3.50;99.90;;;;;;497210;239;27381;-66
2022/12/01 07:04:34;;;;;;;26.50;13.32;;;3.50;99.90;;;;;;497182;239;27873;-65
2022/12/01 07:06:36;;;;;;;23.92;13.62;;;3.50;99.90;;;;;;497158;239;29052;-66
2022/12/01 07:08:37;;;;;;;25.55;14.63;;;3.40;99.90;;;;;;497104;239;27468;-65
2022/12/01 07:10:38;;;;;;;25.20;14.65;;;3.50;99.90;;;;;;497202;239;27404;-66
2022/12/01 07:12:39;;;;;;;25.90;13.68;;;3.40;99.90;;;;;;497185;239;27492;-68
2022/12/01 07:14:41;;;;;;;27.35;15.07;;;3.40;99.90;;;;;;497190;239;27558;-66
2022/12/01 07:16:42;;;;;;;23.05;13.40;;;3.50;99.90;;;;;;497159;239;27468;-66
2022/12/01 07:18:43;;;;;;;26.27;15.13;;;3.40;99.90;;;;;;497180;239;27535;-65
2022/12/01 07:20:44;;;;;;;27.10;14.63;;;3.40;99.90;;;;;;497187;239;27953;-65
2022/12/01 07:22:46;;;;;;;30.75;16.55;;;3.30;99.90;;;;;;497197;239;29123;-67
2022/12/01 07:24:47;;;;;;;34.50;17.80;;;3.30;99.90;;;;;;497187;239;27430;-66
2022/12/01 07:26:48;;;;;;;34.60;17.70;;;3.20;99.90;;;;;;497183;239;27556;-66
2022/12/01 07:28:49;;;;;;;27.27;15.77;;;3.30;99.90;;;;;;497163;239;27533;-65
2022/12/01 07:30:51;;;;;;;25.98;14.60;;;3.30;99.90;;;;;;497181;239;27530;-66
2022/12/01 07:32:52;;;;;;;26.05;14.30;;;3.40;99.90;;;;;;497151;239;27483;-67
2022/12/01 07:34:53;;;;;;;26.15;14.52;;;3.40;99.90;;;;;;497201;239;27898;-65
2022/12/01 07:36:54;;;;;;;24.52;14.05;;;3.50;99.90;;;;;;497165;239;27940;-65
2022/12/01 07:38:56;;;;;;;24.15;14.30;;;3.50;99.90;;;;;;497132;239;27436;-65
2022/12/01 07:40:57;;;;;;;24.10;14.55;;;3.50;99.90;;;;;;497192;239;27441;-66
2022/12/01 07:42:58;;;;;;;24.63;13.60;;;3.40;99.90;;;;;;497195;239;27595;-69
2022/12/01 07:44:59;;;;;;;28.67;15.55;;;3.40;99.90;;;;;;497148;239;27467;-69
2022/12/01 07:47:01;;;;;;;31.35;16.25;;;3.30;99.90;;;;;;497162;239;27566;-66
2022/12/01 07:49:02;;;;;;;30.90;16.05;;;3.30;99.90;;;;;;497137;239;27478;-65
2022/12/01 07:51:03;;;;;;;28.62;15.90;;;3.20;99.90;;;;;;497158;239;27910;-66
2022/12/01 07:53:04;;;;;;;30.37;16.80;;;3.20;99.90;;;;;;497184;239;27967;-67
2022/12/01 07:55:06;;;;;;;28.45;14.95;;;3.20;99.90;;;;;;497161;239;27444;-65
2022/12/01 07:57:07;;;;;;;27.23;15.35;;;3.30;99.90;;;;;;497126;239;27558;-66
2022/12/01 07:59:08;;;;;;;34.92;17.85;;;3.30;99.90;;;;;;497144;239;27480;-65
2022/12/01 08:01:10;;;;;;;32.00;17.50;;;3.20;99.90;;;;;;497160;239;27456;-66
2022/12/01 08:03:11;;;;;;;31.92;16.73;;;3.20;99.90;;;;;;497150;239;27606;-67
2022/12/01 08:05:12;;;;;;;32.20;18.40;;;3.30;99.90;;;;;;497154;239;27480;-66
2022/12/01 08:07:13;;;;;;;34.42;18.27;;;3.20;99.90;;;;;;497163;239;27984;-65
2022/12/01 08:09:14;;;;;;;37.28;17.58;;;3.20;99.90;;;;;;497205;239;28269;-65
2022/12/01 08:11:16;;;;;;;35.50;17.35;;;3.20;99.90;;;;;;497203;239;27453;-65
2022/12/01 08:13:17;;;;;;;33.22;17.85;;;3.20;99.90;;;;;;497190;239;27599;-66
2022/12/01 08:15:18;;;;;;;32.83;16.70;;;3.10;99.90;;;;;;497194;239;27487;-65
2022/12/01 08:17:19;;;;;;;34.90;17.75;;;3.10;99.90;;;;;;497196;239;27484;-66
2022/12/01 08:19:21;;;;;;;35.13;18.80;;;3.10;99.90;;;;;;497240;239;28098;-68
2022/12/01 08:21:22;;;;;;;33.75;17.45;;;3.10;99.90;;;;;;497217;239;27975;-66
2022/12/01 08:23:23;;;;;;;33.47;18.80;;;3.20;99.90;;;;;;497208;239;27940;-66
2022/12/01 08:25:25;;;;;;;36.67;16.90;;;3.30;99.90;;;;;;497194;239;27544;-65
2022/12/01 08:27:26;;;;;;;33.45;16.95;;;3.30;99.90;;;;;;497157;239;27492;-66
2022/12/01 08:29:27;;;;;;;28.50;15.27;;;3.40;99.90;;;;;;497198;238;27516;-65
2022/12/01 08:31:28;;;;;;;30.98;15.05;;;3.50;99.90;;;;;;497185;239;27515;-66
2022/12/01 08:33:30;;;;;;;25.37;14.27;;;3.60;99.90;;;;;;497205;239;27530;-67
2022/12/01 08:35:32;;;;;;;26.90;15.10;;;3.60;99.90;;;;;;497205;239;27457;-65
2022/12/01 08:37:32;;;;;;;20.95;12.15;;;3.60;99.90;;;;;;497098;239;28048;-65
2022/12/01 08:39:33;;;;;;;23.25;12.60;;;3.60;99.90;;;;;;497216;239;27963;-68
2022/12/01 08:41:35;;;;;;;23.20;12.15;;;3.60;99.90;;;;;;497212;239;27456;-66
2022/12/01 08:43:40;;;;;;;24.80;12.60;;;3.60;99.90;;;;;;497192;239;27488;-66
2022/12/01 08:45:40;;;;;;;27.58;13.50;;;3.60;99.90;;;;;;497134;239;27566;-65
2022/12/01 08:47:41;;;;;;;26.25;14.05;;;3.50;99.90;;;;;;497185;239;27532;-65
2022/12/01 08:49:42;;;;;;;23.02;13.52;;;3.40;99.90;;;;;;497180;239;27924;-66
2022/12/01 08:51:44;;;;;;;23.30;13.60;;;3.50;99.90;;;;;;497213;239;28046;-68
2022/12/01 08:53:45;;;;;;;29.50;14.40;;;3.40;99.90;;;;;;497241;239;27546;-66
2022/12/01 08:55:46;;;;;;;28.42;14.50;;;3.30;99.90;;;;;;497185;239;27599;-66
2022/12/01 08:57:47;;;;;;;26.62;14.80;;;3.30;99.90;;;;;;497210;239;27448;-65
2022/12/01 08:59:49;;;;;;;30.30;15.30;;;3.30;99.90;;;;;;497162;239;27595;-65
2022/12/01 09:01:53;;;;;;;25.80;14.50;;;3.40;99.90;;;;;;497222;238;27513;-68
2022/12/01 09:04:09;;;;;;;28.87;15.98;;;3.40;99.90;;;;;;497248;239;27607;-69
2022/12/01 09:06:07;;;;;;;26.85;14.87;;;3.40;99.90;;;;;;497058;239;27449;-66
2022/12/01 09:10:28;;;;;;;25.62;14.15;;;3.30;99.90;;;;;;497190;238;27881;-65
2022/12/01 09:12:29;;;;;;;23.60;14.38;;;3.40;99.90;;;;;;497176;239;28002;-66
2022/12/01 09:14:30;;;;;;;29.17;16.80;;;3.40;99.90;;;;;;497203;239;27478;-65
2022/12/01 09:16:31;;;;;;;31.67;17.08;;;3.10;99.90;;;;;;497225;239;27441;-66
2022/12/01 09:18:33;;;;;;;30.00;16.17;;;3.00;99.90;;;;;;497220;239;27457;-67
2022/12/01 09:20:34;;;;;;;32.67;16.55;;;2.90;99.90;;;;;;497194;239;27448;-65
2022/12/01 09:22:35;;;;;;;29.70;15.25;;;3.00;99.90;;;;;;497145;239;27566;-65
2022/12/01 09:24:36;;;;;;;34.40;15.80;;;3.10;99.90;;;;;;497198;239;28522;-68
2022/12/01 09:26:38;;;;;;;30.75;16.45;;;3.10;99.90;;;;;;497126;239;27932;-65
2022/12/01 09:28:39;;;;;;;28.02;15.32;;;3.00;99.90;;;;;;497190;239;28075;-66
2022/12/01 09:30:40;;;;;;;30.08;15.98;;;3.00;99.90;;;;;;497157;239;27435;-65
2022/12/01 09:32:41;;;;;;;28.35;16.55;;;3.10;99.90;;;;;;497120;239;27479;-65
2022/12/01 09:34:43;;;;;;;28.33;15.10;;;3.10;99.90;;;;;;497053;239;27480;-67
2022/12/01 09:36:44;;;;;;;28.27;16.15;;;3.10;99.90;;;;;;497033;239;27469;-66
2022/12/01 09:38:45;;;;;;;33.15;16.05;;;3.00;99.90;;;;;;496951;239;27526;-65
2022/12/01 09:40:46;;;;;;;29.98;15.00;;;2.90;99.90;;;;;;497010;239;28716;-65
2022/12/01 09:42:48;;;;;;;31.92;15.90;;;2.90;99.90;;;;;;497207;239;28981;-65
2022/12/01 09:44:49;;;;;;;28.48;15.32;;;2.90;99.90;;;;;;497200;239;27520;-67
2022/12/01 09:46:50;;;;;;;29.63;15.13;;;3.00;99.90;;;;;;497178;239;27448;-66
2022/12/01 09:48:52;;;;;;;32.70;15.93;;;3.00;99.90;;;;;;497167;239;27497;-66
2022/12/01 09:50:53;;;;;;;33.30;16.60;;;3.00;99.90;;;;;;497174;239;27483;-65
2022/12/01 09:52:54;;;;;;;26.80;15.05;;;3.10;99.90;;;;;;497204;239;27449;-65
2022/12/01 09:54:55;;;;;;;29.50;14.90;;;3.10;99.90;;;;;;497043;239;27572;-67
2022/12/01 09:56:58;;;;;;;28.92;14.90;;;3.00;99.90;;;;;;497109;239;27893;-65
2022/12/01 09:58:58;;;;;;;25.90;14.68;;;3.00;99.90;;;;;;497049;239;27954;-65
2022/12/01 10:00:59;;;;;;;26.98;15.15;;;3.00;99.90;;;;;;497239;239;27548;-68
2022/12/01 10:03:00;;;;;;;26.02;14.65;;;3.00;99.90;;;;;;497218;239;27563;-65
2022/12/01 10:05:02;;;;;;;30.55;14.68;;;3.00;99.90;;;;;;497212;239;27492;-67
2022/12/01 10:07:03;;;;;;;27.80;15.00;;;3.00;99.90;;;;;;497199;239;27457;-65
2022/12/01 10:09:04;;;;;;;30.98;15.30;;;3.00;99.90;;;;;;497177;239;27481;-65
2022/12/01 10:11:05;;;;;;;31.08;15.27;;;3.00;99.90;;;;;;497208;239;27519;-68
2022/12/01 10:13:07;;;;;;;26.15;15.30;;;3.00;99.90;;;;;;497199;239;27971;-65
2022/12/01 10:15:08;;;;;;;26.55;15.13;;;3.10;99.90;;;;;;497190;239;28045;-67
2022/12/01 10:17:09;;;;;;;24.60;14.00;;;3.10;99.90;;;;;;497174;239;27570;-65
2022/12/01 10:19:10;;;;;;;26.67;14.68;;;3.00;99.90;;;;;;497194;239;27468;-66
2022/12/01 10:21:13;;;;;;;28.02;15.10;;;3.10;99.90;;;;;;497209;239;27491;-69
2022/12/01 10:23:14;;;;;;;28.40;14.50;;;3.00;99.90;;;;;;497212;239;27496;-67
2022/12/01 10:25:15;;;;;;;29.73;15.98;;;3.00;99.90;;;;;;497169;239;27916;-65
2022/12/01 10:27:16;;;;;;;27.33;13.60;;;3.00;99.90;;;;;;497152;239;27991;-66
2022/12/01 10:29:18;;;;;;;25.50;14.93;;;3.00;99.90;;;;;;497213;239;27409;-68
2022/12/01 10:31:19;;;;;;;30.17;15.20;;;3.10;99.90;;;;;;497188;239;27495;-66
2022/12/01 10:33:20;;;;;;;32.97;17.17;;;2.90;99.90;;;;;;497177;239;27468;-66